LiveATC.Net - Listen to live air traffic control over the Internet!


ICAO: SUDU  IATA: DZO   Airport: Santa Bernardina International Airport
City: Durazno
Country: Uruguay   Continent: South America
SUDU METAR Weather: SUDU 171700Z 20010KT 9999 SCT026 16/05 Q1017
SUDU ADS-B Flight Tracking  (ADSBExchange)
SUDU Flight Activity (FlightAware)

SUDU Twr/App/FIR
Feed Status: DOWN
Last heard on: 2024-05-11 11:08:06 (8 days 3 hours 26 minutes ago)
Archive Access: SUDU Twr/App/FIR
FacilityFrequency
Durazno Twr/App120.400
Durazno Twr/App126.200
Montevideo Control - Centro (Central)126.300
Feed provided by:

Volemos.org

Aviación Uruguaya - Volemos.com.uy


NOTICE

Unauthorized use prohibited. See LiveATC.net Terms of Service


Airport/ARTCC Code
Frequency Search
(e.g., 124.400, 128.75)
Site-wide search
 


Browse Feeds
Top 50 Feeds
HF Oceanic Feeds
Coverage Map
Bad Weather Areas

LiveATC FAQ

Increase Coverage

Contact LiveATC.net
Press Inquiries

LiveATC on iPhone
LiveATC on Android

LiveATC Mobile
(Mobile browser)

ATC Audio Archives
Interesting Recordings

LiveATC Forums


Home Page
About LiveATC.net


Terms of Use
Privacy Policy

AIRMETs/SIGMETs

FAA Airport Status
NAS Status
Arrival Demand


Server Software By:
Icecast.org
Liquidsoap